Airfield :







YOU CAN JOIN US ON...

 
LOGIN :

Register | Disclaimer

   EN    FR    IT 

 









Legend :    VFR   Marginal VFR   IFR   Intensive IFR   Very Intensive IFR
Visi :
Ceiling :
>= 8 km
>= 3000ft
5 to 8 km
1000 to 3000 ft
1500m to 5 km
500 to 1000 ft
800 to 1500m
200 to 500 ft
< 800m
< 200 ft
Symbols :   Thunderstorms  Fog  Heavy snow  Heavy precipitations  Wind > 20 kt







- Airport Elevation : 501 ft
- IATA code : YWB


CYKG - Kangiqsujuaq (Wakeham Bay)

CURRENT METAR :
  • 181600Z 13008KT 15SM FEW100 SCT120 SCT240 SCT250 M01/M07 A2960 RMK AC1AS2CS1CI1 CI TR SLP037

EXPIRED METARs :
  • 181500Z 12007KT 15SM FEW090 SCT100 BKN240 M01/M08 A2961 RMK AC2AS1CS3 SLP041
  • 181400Z 12005KT 15SM FEW090 BKN110 BKN240 M02/M08 A2964 RMK AC1AS4CS1 SLP053

TAF TAF CYKG
Valid from the 18 at 14:00 until the 18 at 21:00 UTC


181338Z 1814/1821 12010KT P6SM SCT040 BKN100
BECMG 1814/1816 20015KT
FM181700 20015KT P6SM -SN OVC040
TEMPO 1817/1821 3SM -SN OVC020 RMK NXT FCST WILL BE ISSUED AT 191345Z
CZUL FIR / North America



MET'MAP, your aeronautical weather chart ! - Copyright ORBIFLY December 2007 - Disclaimer

ORBIFLY MET'MAP TEAM :

Programming & Development : Alexandra Zaïnal
Concept & Development : Baudouin d'Aumeries
Co-Development & Prog : Marc-Olivier Méhu
Technical & hardware support : Manuel Goepfert

Contact : metmap@orbifly.com




SOURCES & CREDITS :

   NOAA